Rockdale, TX

3:12 AM CST on February 01, 2015 (GMT -0600)
KTXROCKD4 | Change Station
CLOSE
Current Station
Personal Weather Station
Location: Rockdale, TX
Elevation: 500 ft
Nearby Weather Stations

Elev 500 ft 30.56 °N, 97.07 °W | Updated 1 minute ago

Overcast
Overcast
62.1 °F
Feels Like 62.1 °F
N
4.0
Wind Variable Wind from SE
Gusts 4.0 mph

Today
High -- | Low -- °F
--% Chance of Precip.
Yesterday
High -- | Low -- °F
Precip. -- in
7:19 AM 6:04 PM
Waxing Gibbous, 94% visible
Pressure 29.89 in
Visibility 7.0 miles
Clouds Overcast 500 ft
Dew Point 61 °F
Humidity 97%
Rainfall 0.00 in
Snow Depth Not available.
UV 0 out of 12
Pollen 6.40 out of 12
Air Quality Not available.
Flu Activity Not available.
METAR KT35 010855Z AUTO 18011KT 7SM OVC005 17/16 A2989 RMK AO2 T01650159

More Conditions Fewer Conditions

Pressure 29.89 in
Visibility 7.0 miles
Clouds Overcast 500 ft
Dew Point 61 °F
Humidity 97%
Rainfall 0.00 in
Snow Depth Not available.
UV 0 out of 12
Pollen 6.40 out of 12
Air Quality Not available.
Flu Activity Not available.
METAR KT35 010855Z AUTO 18011KT 7SM OVC005 17/16 A2989 RMK AO2 T01650159

More Conditions Fewer Conditions

Nowcast | as of 2:12 am CST on February 1, 2015

Scattered areas of light to moderate rain will continue through the pre-dawn hours generally east of a line from Comanche to Dallas to Sherman. One hour rainfall amounts will average around one tenth of an inch. All precipitation will move northeast around 40 mph. The remainder of North Texas will remain cloudy with patchy areas of drizzle and fog through 5 am.

×

10-Day Weather Forecast

Almanac

Astronomy

Feb. 01, 2015 Rise Set
Actual Time
Civil Twilight
Nautical Twilight
Astronomical Twilight
Moon
Length of Visible Light
Length of Day
Tomorrow will be .
, % of the Moon is Illuminated

Today's Extremes

State Highs State Lows

Community

WunderPhotos

Upload Photos

1,792,338 photos uploaded!

WunderBlogs® & News

Nearby

Air Quality

  Air Quality AQ Index Pollutant
Not available.

Snow Depth

Station Depth Elevation

Earthquake Activity

City Distance Mag. Time & Date
Minimum magnitude displayed is 2.5.

Coastal Water Temperatures

Place Temperature

Nearby Weather Stations